Time;durP1;ratioP1;P1;durP2;ratioP2;P2;SDS_P1;SDS_P2;PMS_P1;PMS_P2;Temp;Humidity;BMP_temperature;BMP_pressure;BME280_temperature;BME280_humidity;BME280_pressure;Samples;Min_cycle;Max_cycle;Signal;HPM_P1;HPM_P2
2023/01/08 00:00:08;;;;;;;4.47;4.05;;;;;;;9.32;70.21;100167.00;4450179;32;33847;-88
2023/01/08 00:02:38;;;;;;;2.87;2.62;;;;;;;9.59;69.37;100156.44;4447785;32;33942;-87
2023/01/08 00:05:12;;;;;;;4.95;4.30;;;;;;;9.43;69.75;100156.09;4448967;32;34674;-88
2023/01/08 00:07:42;;;;;;;4.95;4.53;;;;;;;8.93;71.51;100159.47;4449052;32;33205;-88
2023/01/08 00:10:16;;;;;;;8.32;3.92;;;;;;;9.03;71.54;100151.28;4430359;32;32659;-88
2023/01/08 00:12:45;;;;;;;6.15;3.40;;;;;;;8.88;71.86;100155.25;4448184;32;33629;-88
2023/01/08 00:15:13;;;;;;;7.12;3.90;;;;;;;9.36;70.54;100144.91;4443142;32;32372;-88
2023/01/08 00:17:41;;;;;;;2.90;2.65;;;;;;;8.95;71.83;100147.09;4445310;32;171855;-88
2023/01/08 00:20:09;;;;;;;3.75;3.40;;;;;;;9.05;71.35;100154.72;4447147;32;33333;-88
2023/01/08 00:22:37;;;;;;;5.57;5.12;;;;;;;9.09;71.25;100148.44;4461491;32;33541;-88
2023/01/08 00:25:07;;;;;;;7.65;5.97;;;;;;;9.18;71.14;100143.75;4457027;32;33808;-87
2023/01/08 00:27:35;;;;;;;11.85;6.03;;;;;;;9.09;71.46;100132.63;4456242;32;32940;-86
2023/01/08 00:30:05;;;;;;;8.02;6.12;;;;;;;8.75;72.65;100132.84;4457473;32;34184;-86
2023/01/08 00:32:33;;;;;;;4.45;4.05;;;;;;;9.18;71.17;100127.94;4456416;32;32680;-86
2023/01/08 00:35:02;;;;;;;4.97;4.40;;;;;;;9.06;71.75;100125.69;4457249;32;34682;-87
2023/01/08 00:37:31;;;;;;;3.62;3.17;;;;;;;9.28;70.84;100125.00;4447446;32;35902;-88
2023/01/08 00:39:58;;;;;;;3.50;3.30;;;;;;;9.18;71.15;100119.16;4456802;32;32652;-90
2023/01/08 00:42:26;;;;;;;15.13;4.60;;;;;;;9.55;69.80;100124.06;4443688;32;32919;-90
2023/01/08 00:44:55;;;;;;;11.30;4.53;;;;;;;9.35;70.41;100130.03;4457236;32;33956;-90
2023/01/08 00:47:23;;;;;;;2.45;2.25;;;;;;;9.22;70.64;100133.97;4469643;32;34750;-90
2023/01/08 00:49:51;;;;;;;5.90;5.07;;;;;;;8.94;72.05;100144.53;4442571;32;33352;-90
2023/01/08 00:52:24;;;;;;;5.20;3.28;;;;;;;9.24;70.92;100146.16;4443580;32;33086;-90
2023/01/08 00:54:52;;;;;;;;;;;;;;;9.43;70.11;100146.41;4455779;32;32880;-88
2023/01/08 00:57:20;;;;;;;0.88;0.88;;;;;;;9.75;68.73;100147.09;4441762;32;34505;-89
2023/01/08 00:59:48;;;;;;;6.97;4.40;;;;;;;9.84;68.24;100144.16;4456451;32;35532;-88
2023/01/08 01:02:17;;;;;;;5.93;4.20;;;;;;;9.60;68.99;100145.00;4456374;32;32886;-88
2023/01/08 01:04:48;;;;;;;4.87;3.62;;;;;;;9.59;68.56;100148.53;4430841;32;33198;-86
2023/01/08 01:07:16;;;;;;;8.95;5.00;;;;;;;9.65;68.53;100149.19;4455977;32;32694;-86
2023/01/08 01:09:44;;;;;;;2.87;2.65;;;;;;;9.63;68.70;100148.38;4468145;32;33419;-87
2023/01/08 01:12:13;;;;;;;5.55;3.92;;;;;;;9.69;68.20;100158.72;4455883;32;32495;-87
2023/01/08 01:14:41;;;;;;;4.28;3.90;;;;;;;9.33;68.98;100157.31;4468259;32;34601;-86
2023/01/08 01:17:12;;;;;;;6.82;5.68;;;;;;;9.09;70.30;100151.06;4455881;32;33111;-86
2023/01/08 01:19:42;;;;;;;3.00;2.62;;;;;;;8.84;71.25;100149.22;4456644;32;34229;-86
2023/01/08 01:22:10;;;;;;;5.57;4.45;;;;;;;8.68;71.91;100146.19;4455804;32;34120;-86
2023/01/08 01:24:38;;;;;;;6.10;2.10;;;;;;;8.80;71.50;100142.31;4455611;32;32899;-86
2023/01/08 01:27:06;;;;;;;26.20;3.72;;;;;;;8.51;72.81;100145.84;4455595;32;33720;-86
2023/01/08 01:29:34;;;;;;;5.87;5.50;;;;;;;8.90;71.25;100140.25;4455713;32;33806;-86
2023/01/08 01:32:04;;;;;;;8.43;4.30;;;;;;;8.72;72.11;100126.75;4468717;32;33148;-86
2023/01/08 01:34:34;;;;;;;12.37;7.55;;;;;;;9.03;71.01;100132.84;4429525;32;32747;-87
2023/01/08 01:37:03;;;;;;;4.12;3.33;;;;;;;9.06;70.91;100132.72;4454701;32;33603;-87
2023/01/08 01:39:31;;;;;;;3.40;3.08;;;;;;;8.86;71.37;100130.72;4455096;32;33389;-87
2023/01/08 01:41:59;;;;;;;18.67;5.28;;;;;;;8.96;70.54;100127.75;4442546;32;32841;-87
2023/01/08 01:44:42;;;;;;;11.70;7.07;;;;;;;8.95;71.16;100115.50;4455548;32;32701;-86
2023/01/08 01:47:21;;;;;;;2.58;2.12;;;;;;;8.74;71.61;100113.56;4442679;32;33219;-87
2023/01/08 01:49:55;;;;;;;5.53;3.40;;;;;;;8.55;72.30;100112.41;4454779;32;33714;-87
2023/01/08 01:52:24;;;;;;;3.30;3.10;;;;;;;8.89;71.27;100099.91;4453073;32;33057;-87
2023/01/08 01:54:52;;;;;;;4.43;4.03;;;;;;;8.76;71.52;100103.81;4467336;32;33901;-87
2023/01/08 01:57:20;;;;;;;9.18;6.12;;;;;;;8.81;71.56;100094.00;4455416;32;33559;-87
2023/01/08 01:59:49;;;;;;;4.80;4.40;;;;;;;9.10;70.50;100087.78;4455449;32;33699;-87
2023/01/08 02:02:17;;;;;;;3.30;2.95;;;;;;;8.71;71.55;100089.94;4468333;32;33339;-87
2023/01/08 02:04:49;;;;;;;3.17;2.97;;;;;;;8.54;72.04;100086.97;4455539;32;33969;-87
2023/01/08 02:07:31;;;;;;;4.80;3.47;;;;;;;8.65;71.75;100090.16;4454542;32;33989;-87
2023/01/08 02:10:10;;;;;;;5.03;4.30;;;;;;;8.66;71.87;100086.59;4456848;32;34103;-87
2023/01/08 02:12:54;;;;;;;4.43;2.78;;;;;;;8.60;71.34;100069.25;4457841;32;32064;-89
2023/01/08 02:15:34;;;;;;;5.43;4.93;;;;;;;8.93;70.92;100066.44;4456867;32;34440;-89
2023/01/08 02:18:20;;;;;;;4.57;4.20;;;;;;;9.03;69.72;100069.62;4457032;32;33970;-89
2023/01/08 02:21:01;;;;;;;6.43;3.80;;;;;;;9.10;69.97;100071.13;4456912;32;32683;-88
2023/01/08 02:23:42;;;;;;;5.10;2.90;;;;;;;8.64;71.77;100069.97;4470383;32;33186;-88
2023/01/08 02:26:26;;;;;;;8.75;2.67;;;;;;;8.95;70.60;100068.09;4470455;32;33532;-87
2023/01/08 02:29:02;;;;;;;8.55;4.85;;;;;;;8.84;71.01;100057.06;4450118;32;33699;-87
2023/01/08 02:31:31;;;;;;;1.80;1.70;;;;;;;8.75;70.95;100065.25;4443211;32;32757;-88
2023/01/08 02:33:59;;;;;;;3.83;3.53;;;;;;;8.43;72.18;100064.47;4443974;32;32347;-89
2023/01/08 02:36:35;;;;;;;4.20;3.75;;;;;;;8.36;72.21;100056.81;4470631;32;33567;-88
2023/01/08 02:39:16;;;;;;;5.37;4.97;;;;;;;8.71;71.30;100058.34;4470488;32;33919;-88
2023/01/08 02:41:52;;;;;;;1.75;1.35;;;;;;;8.92;70.41;100052.38;4469419;32;32585;-89
2023/01/08 02:44:31;;;;;;;3.97;3.20;;;;;;;8.55;71.38;100051.88;4469888;32;33632;-88
2023/01/08 02:46:59;;;;;;;4.97;3.30;;;;;;;8.81;70.95;100049.25;4455939;32;33112;-87
2023/01/08 02:49:29;;;;;;;3.45;3.25;;;;;;;8.58;71.39;100049.97;4470447;32;34675;-87
2023/01/08 02:52:05;;;;;;;5.55;3.22;;;;;;;8.38;72.04;100045.34;4461856;32;33146;-88
2023/01/08 02:54:34;;;;;;;6.30;5.70;;;;;;;9.01;70.11;100045.97;4453753;32;32510;-88
2023/01/08 02:57:05;;;;;;;6.68;3.22;;;;;;;8.85;70.41;100040.34;4456446;32;33180;-87
2023/01/08 02:59:34;;;;;;;4.68;2.45;;;;;;;9.06;70.10;100045.81;4443979;32;33392;-88
2023/01/08 03:02:02;;;;;;;2.42;2.22;;;;;;;9.12;69.35;100041.22;4457186;32;34806;-87
2023/01/08 03:04:36;;;;;;;5.97;3.20;;;;;;;8.98;70.02;100051.34;4445284;32;32875;-89
2023/01/08 03:07:05;;;;;;;8.85;6.15;;;;;;;8.95;70.10;100041.75;4457163;32;34137;-87
2023/01/08 03:09:33;;;;;;;2.65;2.47;;;;;;;8.88;70.11;100040.25;4465528;32;33730;-87
2023/01/08 03:12:10;;;;;;;5.18;3.60;;;;;;;8.87;70.32;100043.78;4454369;32;33851;-87
2023/01/08 03:14:47;;;;;;;2.33;2.22;;;;;;;8.79;70.69;100040.56;4440090;32;32358;-87
2023/01/08 03:17:26;;;;;;;2.55;1.85;;;;;;;8.84;70.55;100035.12;4453289;32;33260;-87
2023/01/08 03:20:07;;;;;;;4.60;3.90;;;;;;;8.83;70.36;100030.75;4456571;32;33388;-87
2023/01/08 03:22:36;;;;;;;4.15;3.85;;;;;;;8.88;70.19;100027.09;4456976;32;34190;-87
2023/01/08 03:25:05;;;;;;;2.40;2.30;;;;;;;8.73;70.66;100032.84;4470094;32;34336;-87
2023/01/08 03:27:37;;;;;;;8.95;6.10;;;;;;;8.67;70.96;100043.56;4457065;32;33819;-87
2023/01/08 03:30:07;;;;;;;6.15;3.00;;;;;;;8.79;70.61;100034.44;4457428;32;32866;-88
2023/01/08 03:32:36;;;;;;;5.00;3.22;;;;;;;8.64;71.17;100027.88;4458028;32;33560;-87
2023/01/08 03:35:05;;;;;;;3.78;2.87;;;;;;;8.50;71.29;100025.69;4443780;32;32275;-88
2023/01/08 03:37:36;;;;;;;9.95;4.87;;;;;;;8.81;70.85;100032.59;4442947;32;34957;-87
2023/01/08 03:40:05;;;;;;;2.90;2.37;;;;;;;9.06;69.87;100030.00;4457416;32;34454;-87
2023/01/08 03:42:33;;;;;;;5.72;5.30;;;;;;;9.09;68.97;100033.41;4455231;32;33980;-87
2023/01/08 03:45:01;;;;;;;7.72;5.15;;;;;;;9.01;69.76;100024.03;4469740;32;33084;-87
2023/01/08 03:47:31;;;;;;;2.35;1.77;;;;;;;9.24;68.56;100021.47;4448665;32;32841;-88
2023/01/08 03:50:02;;;;;;;5.15;3.22;;;;;;;8.67;70.78;100019.87;4444603;32;33103;-88
2023/01/08 03:52:31;;;;;;;1.95;1.87;;;;;;;9.04;69.75;100008.12;4456942;32;32763;-88
2023/01/08 03:54:59;;;;;;;18.83;3.28;;;;;;;8.68;70.83;100009.28;4469875;32;32622;-90
2023/01/08 03:57:28;;;;;;;5.70;4.30;;;;;;;8.70;70.95;100009.25;4444054;32;32396;-88
2023/01/08 03:59:55;;;;;;;7.60;2.78;;;;;;;8.56;71.78;100019.38;4469669;32;33837;-89
2023/01/08 04:02:24;;;;;;;2.97;2.78;;;;;;;8.90;70.15;100014.72;4469707;32;34960;-88
2023/01/08 04:04:52;;;;;;;3.40;3.15;;;;;;;9.25;68.86;100002.09;4457441;32;33042;-87
2023/01/08 04:07:19;;;;;;;8.80;4.75;;;;;;;8.73;70.55;100009.13;4456780;32;34034;-87
2023/01/08 04:09:47;;;;;;;6.72;3.83;;;;;;;8.44;71.94;100021.47;4455976;32;34015;-87
2023/01/08 04:12:16;;;;;;;4.93;3.10;;;;;;;8.69;71.38;100018.06;4469573;32;34985;-88
2023/01/08 04:14:44;;;;;;;3.42;3.17;;;;;;;8.92;70.38;100015.50;4454585;32;33501;-88
2023/01/08 04:17:12;;;;;;;3.03;2.83;;;;;;;9.01;70.01;100002.97;4457035;32;34294;-87
2023/01/08 04:19:42;;;;;;;7.82;3.00;;;;;;;9.01;69.75;100002.97;4455609;32;33270;-87
2023/01/08 04:22:10;;;;;;;9.55;4.40;;;;;;;8.97;69.71;100003.09;4454154;32;33695;-87
2023/01/08 04:24:38;;;;;;;2.47;2.28;;;;;;;8.94;70.18;100000.53;4456345;32;33490;-87
2023/01/08 04:27:06;;;;;;;1.58;1.48;;;;;;;8.82;70.45;100008.84;4444364;32;35124;-88
2023/01/08 04:29:34;;;;;;;3.00;2.70;;;;;;;8.97;69.95;100003.09;4455934;32;34062;-87
2023/01/08 04:32:01;;;;;;;12.32;5.65;;;;;;;9.43;68.37;99996.19;4443921;32;32254;-87
2023/01/08 04:34:30;;;;;;;2.97;2.75;;;;;;;9.26;68.82;99998.59;4470027;32;33490;-88
2023/01/08 04:36:58;;;;;;;10.25;3.28;;;;;;;9.15;69.07;99995.44;4456379;32;34187;-88
2023/01/08 04:39:25;;;;;;;7.35;3.33;;;;;;;8.90;69.67;100000.69;4456368;32;33317;-88
2023/01/08 04:41:54;;;;;;;8.48;4.22;;;;;;;8.62;70.82;100006.87;4456631;32;33840;-87
2023/01/08 04:44:22;;;;;;;7.10;3.78;;;;;;;8.71;70.62;100005.72;4442444;32;32711;-89
2023/01/08 04:46:49;;;;;;;3.12;2.90;;;;;;;8.74;70.47;100005.63;4469362;32;33739;-88
2023/01/08 04:49:17;;;;;;;4.90;4.45;;;;;;;8.82;70.02;100003.56;4468140;32;33684;-87
2023/01/08 04:51:45;;;;;;;6.62;4.47;;;;;;;8.61;70.87;100005.16;4455910;32;33614;-87
2023/01/08 04:54:15;;;;;;;4.12;3.80;;;;;;;8.81;70.31;100001.84;4456342;32;33844;-87
2023/01/08 04:56:44;;;;;;;6.05;5.07;;;;;;;9.14;69.16;100004.25;4455656;32;33971;-86
2023/01/08 04:59:12;;;;;;;3.25;2.97;;;;;;;8.97;69.35;99997.81;4457024;32;34015;-87
2023/01/08 05:01:44;;;;;;;7.45;3.92;;;;;;;9.12;69.05;100011.38;4469064;32;33107;-87
2023/01/08 05:04:11;;;;;;;5.43;4.10;;;;;;;8.67;70.35;100011.97;4467821;32;32794;-86
2023/01/08 05:06:39;;;;;;;4.43;3.85;;;;;;;8.58;71.12;100014.91;4443299;32;33721;-86
2023/01/08 05:09:08;;;;;;;3.17;2.85;;;;;;;8.62;70.94;100001.59;4456352;32;34762;-87
2023/01/08 05:11:38;;;;;;;1.35;1.35;;;;;;;8.74;70.26;100008.25;4467652;32;32852;-86
2023/01/08 05:14:05;;;;;;;7.57;3.22;;;;;;;8.74;70.29;100007.41;4455830;32;33540;-88
2023/01/08 05:16:34;;;;;;;8.95;2.67;;;;;;;8.67;71.18;99998.81;4443802;32;32322;-87
2023/01/08 05:19:02;;;;;;;3.30;3.00;;;;;;;9.07;69.36;99992.19;4456452;32;32860;-87
2023/01/08 05:21:30;;;;;;;2.80;2.60;;;;;;;8.91;69.88;99992.72;4468943;32;33542;-87
2023/01/08 05:24:00;;;;;;;4.28;3.90;;;;;;;8.63;70.66;99991.94;4454744;32;33141;-88
2023/01/08 05:26:28;;;;;;;3.12;2.83;;;;;;;8.83;70.17;99994.78;4455194;32;32220;-87
2023/01/08 05:28:56;;;;;;;3.72;3.47;;;;;;;8.90;69.88;99979.63;4456254;32;34108;-88
2023/01/08 05:31:24;;;;;;;2.08;1.87;;;;;;;8.84;70.17;99985.09;4455174;32;34385;-88
2023/01/08 05:33:56;;;;;;;2.42;2.22;;;;;;;8.92;69.80;99983.91;4456200;32;31991;-89
2023/01/08 05:36:25;;;;;;;4.43;3.72;;;;;;;8.98;69.72;99993.41;4430236;32;32472;-88
2023/01/08 05:38:54;;;;;;;3.87;3.60;;;;;;;9.06;69.42;99979.94;4455342;32;32951;-86
2023/01/08 05:41:22;;;;;;;4.30;3.10;;;;;;;8.75;69.85;99986.28;4456412;32;34170;-87
2023/01/08 05:43:51;;;;;;;4.35;3.90;;;;;;;8.93;69.84;99996.19;4458121;32;33834;-86
2023/01/08 05:46:19;;;;;;;2.47;2.37;;;;;;;8.74;70.30;99984.56;4458367;32;34597;-87
2023/01/08 05:48:48;;;;;;;5.15;2.42;;;;;;;8.59;71.00;99983.28;4470930;32;33950;-87
2023/01/08 05:51:19;;;;;;;4.25;1.70;;;;;;;8.50;71.14;99983.59;4445064;32;33399;-87
2023/01/08 05:53:48;;;;;;;2.72;1.73;;;;;;;8.75;70.29;99977.50;4469714;32;32179;-85
2023/01/08 05:56:16;;;;;;;3.70;3.45;;;;;;;8.55;70.80;99972.91;4457305;32;34121;-85
2023/01/08 05:58:46;;;;;;;3.50;2.78;;;;;;;8.71;70.41;99971.47;4458188;32;33909;-85
2023/01/08 06:01:15;;;;;;;3.40;3.08;;;;;;;8.78;70.25;99966.88;4457557;32;32759;-85
2023/01/08 06:03:46;;;;;;;3.70;1.15;;;;;;;9.04;69.09;99960.72;4457932;32;32281;-85
2023/01/08 06:06:15;;;;;;;5.25;4.35;;;;;;;8.84;69.80;99967.53;4458185;32;33827;-85
2023/01/08 06:08:43;;;;;;;4.03;3.70;;;;;;;8.91;69.59;99961.13;4448805;32;33576;-85
2023/01/08 06:11:13;;;;;;;1.90;1.80;;;;;;;8.56;70.56;99953.56;4457077;32;32957;-88
2023/01/08 06:13:43;;;;;;;2.50;2.40;;;;;;;8.31;71.90;99963.97;4457295;32;32314;-87
2023/01/08 06:16:11;;;;;;;3.70;3.40;;;;;;;8.62;70.77;99958.62;4470506;32;33338;-85
2023/01/08 06:18:40;;;;;;;3.15;2.87;;;;;;;8.55;71.03;99951.88;4457033;32;34648;-85
2023/01/08 06:21:09;;;;;;;5.95;4.87;;;;;;;8.34;71.55;99954.22;4457509;32;33144;-86
2023/01/08 06:23:38;;;;;;;8.05;3.55;;;;;;;8.31;71.88;99954.34;4440836;32;32343;-85
2023/01/08 06:26:07;;;;;;;2.22;2.10;;;;;;;8.13;72.38;99957.56;4453425;32;33906;-86
2023/01/08 06:28:39;;;;;;;2.50;2.40;;;;;;;8.35;71.53;99953.31;4454637;32;33104;-85
2023/01/08 06:33:43;;;;;;;5.82;2.58;;;;;;;8.25;71.91;99949.25;4479436;32;33282;-85
2023/01/08 06:36:11;;;;;;;5.12;4.47;;;;;;;8.32;72.10;99956.06;4454164;32;33728;-84
2023/01/08 06:38:39;;;;;;;9.55;4.47;;;;;;;8.24;72.05;99952.81;4454241;32;35173;-85
2023/01/08 06:41:09;;;;;;;7.37;3.53;;;;;;;8.62;70.50;99948.09;4466111;32;33336;-84
2023/01/08 06:43:39;;;;;;;9.70;5.47;;;;;;;9.07;68.96;99942.16;4451913;32;33815;-83
2023/01/08 06:46:08;;;;;;;6.32;5.70;;;;;;;8.73;70.01;99940.69;4466610;32;34233;-83
2023/01/08 06:48:38;;;;;;;5.57;4.68;;;;;;;8.98;69.07;99952.12;4453546;32;33966;-84
2023/01/08 06:51:06;;;;;;;3.08;1.98;;;;;;;8.87;69.39;99948.13;4468236;32;33874;-84
2023/01/08 06:53:37;;;;;;;3.28;1.98;;;;;;;8.81;69.54;99946.56;4450626;32;31691;-85
2023/01/08 06:56:09;;;;;;;4.85;4.43;;;;;;;8.94;69.20;99942.59;4453770;32;32008;-86
2023/01/08 07:01:15;;;;;;;7.32;5.43;;;;;;;8.79;69.73;99945.78;4467323;32;33605;-87
2023/01/08 07:03:50;;;;;;;5.00;3.30;;;;;;;8.43;70.66;99956.59;4455183;32;33157;-88
2023/01/08 07:06:23;;;;;;;4.07;2.80;;;;;;;8.55;70.67;99949.22;4449738;32;33198;-88
2023/01/08 07:08:53;;;;;;;2.92;2.72;;;;;;;8.70;70.14;99956.59;4442058;32;33047;-88
2023/01/08 07:11:22;;;;;;;1.65;1.55;;;;;;;9.06;68.82;99949.19;4436740;32;33778;-88
2023/01/08 07:13:52;;;;;;;6.30;1.98;;;;;;;9.01;69.09;99950.28;4456520;32;31770;-88
2023/01/08 07:16:20;;;;;;;3.35;3.05;;;;;;;8.74;69.80;99947.69;4470805;32;32638;-88
2023/01/08 07:18:50;;;;;;;4.32;2.40;;;;;;;8.63;70.36;99955.94;4450367;31;34766;-86
2023/01/08 07:21:22;;;;;;;;;;;;;;;8.57;70.41;99944.75;4455730;31;33825;-90
2023/01/08 07:23:53;;;;;;;4.80;3.95;;;;;;;8.74;70.03;99942.44;4441778;32;32074;-90
2023/01/08 07:26:27;;;;;;;1.58;1.48;;;;;;;8.84;69.52;99954.38;4469619;32;33903;-89
2023/01/08 07:28:58;;;;;;;5.43;4.95;;;;;;;8.12;72.02;99955.84;4457128;32;34008;-89
2023/01/08 07:31:35;;;;;;;2.90;2.67;;;;;;;8.31;71.48;99935.03;4457526;32;33213;-88
2023/01/08 07:34:03;;;;;;;1.60;1.50;;;;;;;8.19;71.96;99941.56;4457823;32;33961;-87
2023/01/08 07:36:32;;;;;;;3.95;1.70;;;;;;;8.49;70.54;99933.63;4451454;32;33311;-87
2023/01/08 07:39:02;;;;;;;3.33;1.20;;;;;;;8.31;71.63;99933.28;4443442;32;33526;-87
2023/01/08 07:41:31;;;;;;;4.05;3.58;;;;;;;8.20;71.89;99935.38;4455876;32;33031;-87
2023/01/08 07:44:02;;;;;;;4.65;4.30;;;;;;;8.40;71.23;99943.56;4444344;32;32721;-88
2023/01/08 07:46:36;;;;;;;2.83;2.62;;;;;;;8.57;70.52;99936.88;4443295;32;33197;-87
2023/01/08 07:49:05;;;;;;;2.85;2.65;;;;;;;8.11;71.65;99940.94;4457722;32;33382;-87
2023/01/08 07:51:33;;;;;;;3.45;3.25;;;;;;;8.08;72.27;99941.91;4470027;32;33916;-89
2023/01/08 07:54:03;;;;;;;3.85;3.60;;;;;;;8.03;72.11;99942.97;4466982;32;33450;-87
2023/01/08 07:56:33;;;;;;;4.62;3.15;;;;;;;8.55;70.58;99929.03;4446317;32;33634;-86
2023/01/08 07:59:05;;;;;;;2.33;1.90;;;;;;;8.00;72.33;99943.91;4456438;32;32575;-88
2023/01/08 08:01:42;;;;;;;3.45;3.25;;;;;;;8.09;71.92;99935.75;4461565;32;34765;-90
2023/01/08 08:04:14;;;;;;;4.68;4.22;;;;;;;8.09;71.69;99937.50;4455437;32;32169;-89
2023/01/08 08:06:46;;;;;;;3.05;2.85;;;;;;;8.04;72.11;99926.28;4466242;32;33167;-90
2023/01/08 08:09:19;;;;;;;3.37;3.12;;;;;;;7.65;73.73;99930.06;4454854;32;34139;-90
2023/01/08 08:11:55;;;;;;;5.05;3.28;;;;;;;7.91;72.50;99937.16;4457597;31;33749;-92
2023/01/08 08:14:26;;;;;;;4.37;3.60;;;;;;;7.72;73.71;99938.63;4442696;31;32157;-90
2023/01/08 08:16:54;;;;;;;4.05;2.85;;;;;;;7.96;72.32;99921.25;4454047;31;32934;-90
2023/01/08 08:19:22;;;;;;;3.83;1.85;;;;;;;7.85;72.65;99932.09;4448109;32;32619;-90
2023/01/08 08:21:53;;;;;;;2.75;1.75;;;;;;;8.14;71.86;99919.81;4438882;32;32506;-90
2023/01/08 08:24:23;;;;;;;1.65;1.58;;;;;;;8.32;71.11;99919.22;4451811;32;32905;-90
2023/01/08 08:26:53;;;;;;;2.87;2.42;;;;;;;8.16;71.54;99908.31;4431368;32;32733;-90
2023/01/08 08:29:25;;;;;;;2.03;1.92;;;;;;;8.08;72.23;99899.84;4434267;32;33030;-90
2023/01/08 08:31:59;;;;;;;3.67;3.42;;;;;;;8.48;70.27;99902.97;4455700;32;34518;-90
2023/01/08 08:34:29;;;;;;;2.37;2.28;;;;;;;8.30;70.99;99897.34;4453196;32;33468;-89
2023/01/08 08:36:57;;;;;;;2.28;2.05;;;;;;;8.36;70.57;99905.09;4457295;32;33576;-90
2023/01/08 08:39:28;;;;;;;4.07;3.22;;;;;;;8.52;69.99;99899.31;4438252;32;33766;-89
2023/01/08 08:41:58;;;;;;;3.05;2.85;;;;;;;8.56;69.75;99893.03;4442679;32;33741;-90
2023/01/08 08:44:30;;;;;;;11.38;2.55;;;;;;;8.64;69.64;99897.13;4425699;32;33368;-90
2023/01/08 08:47:08;;;;;;;2.70;2.50;;;;;;;8.39;70.37;99883.94;4451434;32;33147;-90
2023/01/08 08:49:40;;;;;;;3.35;2.83;;;;;;;8.26;70.92;99887.88;4440343;32;34499;-90
2023/01/08 08:52:09;;;;;;;3.40;2.42;;;;;;;8.11;71.11;99886.56;4431594;32;32611;-90
2023/01/08 08:54:42;;;;;;;;;;;;;;;8.18;71.19;99884.63;4429217;32;32030;-90
2023/01/08 08:57:12;;;;;;;2.70;2.53;;;;;;;8.23;71.30;99887.09;4438396;32;35925;-89
2023/01/08 08:59:42;;;;;;;3.70;2.85;;;;;;;8.50;70.28;99880.06;4442755;32;33670;-90
2023/01/08 09:02:15;;;;;;;3.05;1.80;;;;;;;8.22;70.92;99891.50;4440699;32;32053;-90
2023/01/08 09:07:18;;;;;;;2.08;1.98;;;;;;;8.68;69.38;99888.19;4435946;32;34059;-90
2023/01/08 09:09:48;;;;;;;2.25;2.15;;;;;;;8.78;69.09;99885.25;4448783;32;34674;-89
2023/01/08 09:12:19;;;;;;;1.77;1.67;;;;;;;8.71;69.09;99874.09;4437926;32;34422;-90
2023/01/08 09:14:50;;;;;;;3.15;2.75;;;;;;;8.89;68.47;99876.06;4437910;32;32618;-91
2023/01/08 09:17:20;;;;;;;1.77;1.67;;;;;;;8.76;68.91;99866.03;4426901;32;32489;-90
2023/01/08 09:19:50;;;;;;;2.42;2.33;;;;;;;8.66;69.32;99881.28;4448365;32;33909;-90
2023/01/08 09:25:04;;;;;;;2.22;2.12;;;;;;;8.94;68.44;99876.75;4456381;32;32482;-91
2023/01/08 09:27:44;;;;;;;5.25;4.85;;;;;;;8.48;70.25;99874.00;4459314;32;33188;-90
2023/01/08 09:30:14;;;;;;;2.05;1.95;;;;;;;8.96;68.25;99868.81;4457030;32;33023;-90
2023/01/08 09:32:43;;;;;;;2.30;1.55;;;;;;;8.78;68.36;99872.94;4454769;31;35829;-90
2023/01/08 09:35:17;;;;;;;3.42;2.08;;;;;;;8.58;69.29;99867.53;4445115;32;32031;-88
2023/01/08 09:37:53;;;;;;;1.60;1.50;;;;;;;8.71;69.65;99863.56;4456797;32;34213;-88
2023/01/08 09:43:00;;;;;;;2.92;2.58;;;;;;;9.12;67.92;99840.16;4457289;32;33258;-86
2023/01/08 09:45:38;;;;;;;1.80;1.70;;;;;;;9.05;67.99;99838.63;4459809;31;34937;-87
2023/01/08 09:48:13;;;;;;;5.37;3.50;;;;;;;9.49;66.95;99834.31;4444524;31;33019;-86
2023/01/08 09:53:20;;;;;;;3.90;3.70;;;;;;;9.20;67.74;99820.47;4455511;31;33230;-86
2023/01/08 09:56:00;;;;;;;6.50;3.10;;;;;;;9.38;67.48;99820.72;4470056;32;32499;-87
2023/01/08 09:59:02;;;;;;;2.03;1.92;;;;;;;9.20;68.17;99820.47;4457554;32;32632;-87
2023/01/08 10:01:39;;;;;;;3.12;2.58;;;;;;;9.30;68.24;99810.44;4457074;32;34428;-86
2023/01/08 10:04:22;;;;;;;1.58;1.48;;;;;;;9.72;65.56;99802.63;4460705;32;34836;-86
2023/01/08 10:07:00;;;;;;;3.60;2.05;;;;;;;9.32;67.43;99798.09;4445152;32;32757;-86
2023/01/08 10:09:36;;;;;;;1.87;1.37;;;;;;;9.07;67.88;99802.56;4459206;32;34570;-87
2023/01/08 10:17:41;;;;;;;7.85;3.62;;;;;;;9.58;66.71;99786.50;4472467;32;33820;-87
2023/01/08 10:20:18;;;;;;;2.15;2.05;;;;;;;9.82;66.39;99776.75;4458338;32;32490;-87
2023/01/08 10:22:53;;;;;;;2.62;2.42;;;;;;;9.94;65.58;99771.00;4447113;32;34206;-87
2023/01/08 10:25:29;;;;;;;2.35;2.15;;;;;;;10.20;65.20;99767.22;4459304;32;34022;-87
2023/01/08 10:28:02;;;;;;;1.05;0.93;;;;;;;10.12;64.65;99764.09;4452314;32;33724;-86
2023/01/08 10:30:38;;;;;;;1.85;1.42;;;;;;;10.37;63.97;99753.34;4453454;32;33409;-87
2023/01/08 10:33:26;;;;;;;4.47;3.33;;;;;;;10.60;63.20;99754.12;4452152;32;34477;-87
2023/01/08 10:36:07;;;;;;;2.67;1.95;;;;;;;10.30;64.39;99761.59;4451548;32;33298;-87
2023/01/08 10:38:50;;;;;;;5.37;2.90;;;;;;;10.65;64.02;99754.78;4443636;32;31915;-87
2023/01/08 10:41:18;;;;;;;6.57;3.90;;;;;;;10.98;62.53;99745.34;4439974;32;33961;-87
2023/01/08 10:43:53;;;;;;;6.93;2.30;;;;;;;10.75;62.84;99748.16;4446678;32;34352;-86
2023/01/08 10:49:03;;;;;;;2.95;2.22;;;;;;;10.90;62.08;99731.59;4460498;32;33586;-87
2023/01/08 10:54:35;;;;;;;;;;;;;;;10.61;63.14;99724.16;4447222;32;34833;-87
2023/01/08 10:57:42;;;;;;;3.20;2.50;;;;;;;10.72;62.80;99727.16;4462799;32;34043;-87
2023/01/08 11:00:30;;;;;;;2.10;2.00;;;;;;;11.02;61.81;99715.19;4368977;32;32065;-86
2023/01/08 11:03:05;;;;;;;3.35;2.42;;;;;;;10.84;62.02;99726.63;4448698;32;34594;-86
2023/01/08 11:05:37;;;;;;;1.75;1.65;;;;;;;10.38;63.98;99718.13;4448547;32;33282;-87
2023/01/08 11:08:15;;;;;;;4.07;3.67;;;;;;;10.56;63.90;99720.88;4449078;32;33030;-86
2023/01/08 11:10:58;;;;;;;1.92;1.27;;;;;;;10.67;63.36;99702.75;4453460;32;34202;-87
2023/01/08 11:13:46;;;;;;;1.50;1.45;;;;;;;10.74;63.42;99698.91;4435096;32;34092;-87
2023/01/08 11:16:18;;;;;;;1.75;1.65;;;;;;;10.85;63.51;99691.34;4462586;32;33573;-86
2023/01/08 11:18:49;;;;;;;5.12;2.67;;;;;;;11.29;61.04;99685.72;4442672;32;33083;-87
2023/01/08 11:24:09;;;;;;;0.95;0.85;;;;;;;11.03;61.70;99674.63;4465940;32;34194;-87
2023/01/08 11:26:51;;;;;;;2.30;2.20;;;;;;;10.63;63.21;99669.50;4450131;32;33844;-87
2023/01/08 11:29:31;;;;;;;1.80;1.70;;;;;;;10.37;64.17;99676.81;4448816;32;33468;-86
2023/01/08 11:35:10;;;;;;;7.85;3.12;;;;;;;10.40;64.29;99660.84;4446735;32;32418;-87
2023/01/08 11:37:57;;;;;;;4.70;2.10;;;;;;;10.84;63.40;99655.31;4477897;32;34816;-86
2023/01/08 11:40:43;;;;;;;2.87;2.58;;;;;;;10.95;62.48;99650.34;4435962;32;32420;-87
2023/01/08 11:43:30;;;;;;;2.72;2.33;;;;;;;10.88;63.05;99651.59;4463679;32;33348;-87
2023/01/08 11:46:17;;;;;;;7.47;3.60;;;;;;;11.01;62.86;99644.81;4450013;32;34217;-87
2023/01/08 11:49:09;;;;;;;1.60;1.50;;;;;;;11.23;62.11;99634.03;4437095;32;33587;-86
2023/01/08 11:51:47;;;;;;;2.15;2.03;;;;;;;10.20;64.55;99629.16;4464140;32;34235;-86
2023/01/08 11:54:43;;;;;;;12.18;2.75;;;;;;;10.39;63.71;99623.94;4458430;32;33069;-86
2023/01/08 12:00:03;;;;;;;2.08;1.92;;;;;;;10.87;62.78;99619.94;4476334;32;33326;-87
2023/01/08 12:05:24;;;;;;;3.47;3.17;;;;;;;10.67;63.85;99620.91;4458569;32;33531;-87
2023/01/08 12:08:06;;;;;;;6.18;3.58;;;;;;;10.78;63.43;99615.97;4475825;32;33974;-86
2023/01/08 12:16:26;;;;;;;2.08;1.98;;;;;;;11.11;62.60;99599.41;4476816;32;34040;-86
2023/01/08 12:20:00;;;;;;;4.90;2.87;;;;;;;11.12;62.50;99604.63;4463646;32;35534;-87
2023/01/08 12:22:47;;;;;;;7.20;2.60;;;;;;;11.42;62.07;99601.41;4457069;32;33498;-86
2023/01/08 12:25:49;;;;;;;7.82;3.67;;;;;;;11.60;61.18;99599.63;4460322;32;35482;-86
2023/01/08 12:28:35;;;;;;;4.65;2.55;;;;;;;11.59;61.40;99597.91;4460706;32;33451;-87
2023/01/08 12:31:43;;;;;;;1.87;1.75;;;;;;;11.66;61.45;99599.28;4440583;32;32522;-87
2023/01/08 12:34:54;;;;;;;2.92;2.70;;;;;;;11.92;61.00;99605.94;4441240;32;33099;-86
2023/01/08 12:37:49;;;;;;;5.80;2.30;;;;;;;11.96;60.40;99603.03;4435096;32;32491;-87
2023/01/08 12:40:33;;;;;;;2.30;1.50;;;;;;;11.60;61.29;99589.03;4448988;32;33023;-87
2023/01/08 12:43:13;;;;;;;3.03;1.95;;;;;;;11.23;62.33;99599.66;4447776;32;33329;-87
2023/01/08 12:45:47;;;;;;;1.42;1.37;;;;;;;11.31;62.21;99596.66;4451805;32;33212;-87